createdAt,value
2023-04-21T00:01:30.750Z,2.55
2023-04-21T00:04:01.109Z,3.90
2023-04-21T00:06:32.106Z,2.13
2023-04-21T00:09:01.577Z,4.65
2023-04-21T00:11:30.545Z,3.13
2023-04-21T00:13:59.685Z,1.15
2023-04-21T00:16:28.874Z,1.77
2023-04-21T00:18:57.984Z,0.88
2023-04-21T00:21:27.630Z,1.73
2023-04-21T00:23:57.383Z,4.13
2023-04-21T00:26:29.537Z,2.17
2023-04-21T00:28:59.169Z,3.53
2023-04-21T00:31:28.306Z,1.45
2023-04-21T00:33:57.342Z,2.05
2023-04-21T00:36:29.654Z,3.72
2023-04-21T00:38:58.628Z,2.25
2023-04-21T00:41:30.026Z,3.22
2023-04-21T00:44:07.439Z,2.85
2023-04-21T00:46:40.979Z,3.80
2023-04-21T00:49:10.793Z,3.67
2023-04-21T00:51:40.958Z,1.35
2023-04-21T00:54:13.082Z,2.30
2023-04-21T00:56:42.338Z,1.60
2023-04-21T00:59:12.559Z,3.25
2023-04-21T01:01:43.112Z,2.45
2023-04-21T01:04:12.421Z,3.38
2023-04-21T01:06:43.654Z,4.07
2023-04-21T01:09:15.507Z,2.42
2023-04-21T01:12:01.136Z,2.35
2023-04-21T01:14:30.631Z,2.03
2023-04-21T01:17:00.242Z,4.63
2023-04-21T01:19:33.629Z,5.20
2023-04-21T01:22:07.544Z,2.78
2023-04-21T01:24:39.271Z,3.28
2023-04-21T01:27:17.542Z,2.25
2023-04-21T01:29:49.306Z,3.10
2023-04-21T01:32:27.253Z,1.98
2023-04-21T01:34:58.026Z,1.40
2023-04-21T01:37:32.114Z,1.42
2023-04-21T01:40:05.824Z,2.50
2023-04-21T01:42:37.494Z,2.40
2023-04-21T01:45:07.754Z,3.38
2023-04-21T01:47:39.811Z,1.25
2023-04-21T01:50:09.393Z,1.10
2023-04-21T01:52:38.785Z,2.00
2023-04-21T01:55:08.680Z,1.77
2023-04-21T01:57:38.016Z,2.72
2023-04-21T02:00:10.583Z,4.47
2023-04-21T02:02:56.849Z,2.10
2023-04-21T02:05:30.776Z,2.42
2023-04-21T02:08:00.459Z,3.17
2023-04-21T02:10:35.198Z,2.95
2023-04-21T02:13:09.059Z,2.72
2023-04-21T02:15:42.239Z,3.08
2023-04-21T02:18:11.617Z,4.78
2023-04-21T02:20:40.786Z,1.85
2023-04-21T02:23:12.481Z,2.17
2023-04-21T02:25:41.833Z,3.88
2023-04-21T02:28:10.791Z,2.28
2023-04-21T02:30:43.331Z,1.15
2023-04-21T02:33:12.537Z,2.15
2023-04-21T02:35:41.596Z,1.25
2023-04-21T02:38:11.387Z,1.52
2023-04-21T02:40:40.585Z,1.70
2023-04-21T02:43:09.851Z,1.17
2023-04-21T02:45:38.991Z,1.48
2023-04-21T02:48:08.219Z,1.92
2023-04-21T02:50:37.655Z,0.93
2023-04-21T02:53:06.859Z,0.80
2023-04-21T02:55:36.262Z,2.05
2023-04-21T02:58:05.393Z,2.13
2023-04-21T03:00:34.521Z,1.25
2023-04-21T03:03:03.866Z,2.67
2023-04-21T03:05:33.038Z,1.40
2023-04-21T03:08:02.055Z,0.65
2023-04-21T03:10:31.218Z,1.52
2023-04-21T03:13:02.062Z,0.80
2023-04-21T03:15:33.536Z,0.60
2023-04-21T03:18:03.781Z,0.98
2023-04-21T03:20:32.950Z,1.85
2023-04-21T03:23:02.015Z,0.80
2023-04-21T03:25:31.044Z,0.65
2023-04-21T03:28:00.190Z,0.68
2023-04-21T03:30:32.305Z,0.65
2023-04-21T03:33:01.903Z,0.88
2023-04-21T03:35:31.616Z,1.17
2023-04-21T03:38:03.845Z,2.03
2023-04-21T03:40:37.522Z,3.20
2023-04-21T03:43:06.671Z,2.03
2023-04-21T03:45:39.023Z,1.48
2023-04-21T03:48:34.914Z,2.05
2023-04-21T03:51:04.371Z,1.60
2023-04-21T03:53:33.767Z,3.13
2023-04-21T03:56:03.272Z,3.30
2023-04-21T03:58:32.835Z,1.23
2023-04-21T04:01:02.450Z,0.70
2023-04-21T04:03:35.122Z,1.50
2023-04-21T04:06:05.051Z,0.65
2023-04-21T04:08:37.204Z,0.80
2023-04-21T04:11:06.612Z,5.63
2023-04-21T04:13:38.778Z,2.20
2023-04-21T04:16:08.692Z,0.95
2023-04-21T04:18:37.762Z,1.00
2023-04-21T04:21:10.989Z,0.90
2023-04-21T04:23:40.104Z,1.02
2023-04-21T04:26:10.277Z,0.60
2023-04-21T04:28:39.683Z,0.60
2023-04-21T04:31:09.016Z,1.00
2023-04-21T04:33:38.368Z,0.50
2023-04-21T04:36:07.770Z,0.50
2023-04-21T04:38:38.271Z,0.70
2023-04-21T04:41:09.801Z,3.20
2023-04-21T04:43:39.950Z,1.65
2023-04-21T04:46:13.814Z,1.25
2023-04-21T04:48:42.998Z,0.82
2023-04-21T04:51:11.983Z,0.50
2023-04-21T04:53:41.377Z,0.73
2023-04-21T04:56:10.572Z,1.90
2023-04-21T04:58:39.788Z,0.60
2023-04-21T05:01:16.801Z,1.85
2023-04-21T05:03:47.643Z,1.35
2023-04-21T05:06:16.798Z,1.98
2023-04-21T05:08:45.898Z,0.88
2023-04-21T05:11:14.895Z,0.75
2023-04-21T05:13:43.811Z,1.13
2023-04-21T05:16:12.981Z,2.95
2023-04-21T05:18:42.103Z,2.13
2023-04-21T05:21:11.303Z,0.80
2023-04-21T05:23:40.446Z,0.90
2023-04-21T05:26:09.639Z,3.75
2023-04-21T05:28:38.929Z,2.58
2023-04-21T05:31:07.965Z,0.88
2023-04-21T05:33:37.028Z,0.70
2023-04-21T05:36:10.294Z,1.52
2023-04-21T05:38:40.159Z,1.58
2023-04-21T05:41:09.460Z,1.80
2023-04-21T05:43:38.594Z,1.58
2023-04-21T05:46:11.851Z,1.05
2023-04-21T05:48:42.579Z,1.42
2023-04-21T05:51:13.022Z,1.33
2023-04-21T05:53:43.799Z,1.67
2023-04-21T05:56:14.680Z,1.08
2023-04-21T05:58:43.815Z,0.80
2023-04-21T06:01:13.862Z,1.20
2023-04-21T06:03:43.302Z,1.25
2023-04-21T06:06:12.509Z,1.45
2023-04-21T06:08:41.658Z,1.25
2023-04-21T06:11:10.796Z,1.30
2023-04-21T06:13:41.650Z,1.60
2023-04-21T06:16:12.164Z,1.40
2023-04-21T06:18:41.157Z,1.35
2023-04-21T06:21:10.219Z,1.42
2023-04-21T06:23:39.315Z,4.35
2023-04-21T06:26:11.038Z,2.03
2023-04-21T06:28:40.352Z,1.00
2023-04-21T06:31:10.778Z,3.10
2023-04-21T06:33:39.810Z,7.00
2023-04-21T06:36:09.428Z,5.68
2023-04-21T06:38:40.736Z,4.43
2023-04-21T06:41:10.424Z,6.97
2023-04-21T06:43:39.580Z,3.85
2023-04-21T06:46:08.736Z,10.30
2023-04-21T06:48:38.353Z,5.50
2023-04-21T06:51:07.673Z,11.60
2023-04-21T06:53:38.445Z,5.97
2023-04-21T06:56:07.866Z,9.90
2023-04-21T06:58:38.268Z,9.68
2023-04-21T07:01:07.464Z,10.10
2023-04-21T07:03:36.880Z,19.38
2023-04-21T07:06:06.472Z,12.48
2023-04-21T07:08:35.785Z,15.23
2023-04-21T07:11:05.272Z,20.42
2023-04-21T07:13:34.322Z,16.70
2023-04-21T07:16:03.541Z,20.00
2023-04-21T07:18:34.904Z,19.73
2023-04-21T07:21:04.044Z,13.73
2023-04-21T07:23:33.271Z,19.65
2023-04-21T07:26:02.415Z,13.35
2023-04-21T07:28:34.818Z,20.00
2023-04-21T07:31:06.953Z,20.27
2023-04-21T07:33:36.208Z,15.23
2023-04-21T07:36:06.887Z,16.08
2023-04-21T07:38:36.604Z,20.90
2023-04-21T07:41:06.189Z,21.85
2023-04-21T07:43:37.883Z,19.50
2023-04-21T07:46:07.926Z,16.70
2023-04-21T07:48:42.094Z,25.88
2023-04-21T07:51:11.361Z,20.20
2023-04-21T07:53:45.468Z,18.15
2023-04-21T07:56:14.785Z,27.95
2023-04-21T07:58:44.068Z,22.08
2023-04-21T08:01:14.027Z,21.27
2023-04-21T08:03:43.409Z,15.00
2023-04-21T08:06:14.231Z,26.23
2023-04-21T08:08:43.335Z,21.00
2023-04-21T08:11:14.904Z,26.38
2023-04-21T08:13:44.158Z,20.88
2023-04-21T08:16:13.417Z,15.82
2023-04-21T08:18:42.499Z,27.42
2023-04-21T08:21:12.014Z,15.20
2023-04-21T08:23:41.408Z,21.88
2023-04-21T08:26:16.779Z,18.95
2023-04-21T08:28:45.997Z,16.60
2023-04-21T08:31:15.138Z,18.80
2023-04-21T08:33:57.969Z,21.58
2023-04-21T08:36:30.758Z,17.02
2023-04-21T08:39:01.919Z,22.55
2023-04-21T08:41:34.624Z,26.45
2023-04-21T08:44:06.885Z,22.95
2023-04-21T08:46:37.534Z,18.38
2023-04-21T08:49:14.297Z,22.60
2023-04-21T08:51:44.276Z,17.02
2023-04-21T08:54:13.485Z,25.15
2023-04-21T08:56:42.719Z,12.75
2023-04-21T08:59:12.822Z,14.25
2023-04-21T09:02:17.239Z,9.95
2023-04-21T09:04:56.596Z,19.33
2023-04-21T09:07:34.570Z,16.20
2023-04-21T09:10:04.508Z,17.83
2023-04-21T09:12:38.756Z,20.95
2023-04-21T09:15:11.361Z,17.38
2023-04-21T09:17:41.092Z,16.15
2023-04-21T09:20:19.497Z,20.20
2023-04-21T09:22:56.144Z,18.80
2023-04-21T09:25:25.398Z,22.70
2023-04-21T09:27:57.264Z,16.38
2023-04-21T09:30:27.209Z,20.77
2023-04-21T09:33:00.224Z,18.30
2023-04-21T09:35:30.994Z,16.23
2023-04-21T09:38:02.138Z,20.55
2023-04-21T09:40:32.062Z,16.67
2023-04-21T09:43:04.333Z,20.50
2023-04-21T09:45:40.541Z,16.67
2023-04-21T09:48:12.740Z,19.73
2023-04-21T09:51:20.725Z,19.92
2023-04-21T09:53:39.965Z,22.55
2023-04-21T09:56:17.268Z,16.02
2023-04-21T09:58:53.669Z,23.67
2023-04-21T10:01:25.782Z,19.15
2023-04-21T10:03:56.407Z,17.52
2023-04-21T10:06:26.146Z,16.67
2023-04-21T10:08:58.720Z,26.17
2023-04-21T10:11:28.204Z,16.88
2023-04-21T10:13:57.320Z,25.40
2023-04-21T10:16:27.415Z,17.58
2023-04-21T10:18:56.477Z,22.33
2023-04-21T10:21:25.776Z,17.65
2023-04-21T10:23:55.440Z,25.10
2023-04-21T10:26:30.198Z,19.33
2023-04-21T10:29:07.804Z,19.63
2023-04-21T10:31:48.520Z,22.00
2023-04-21T10:34:19.515Z,23.67
2023-04-21T10:37:13.036Z,16.55
2023-04-21T10:39:56.408Z,18.15
2023-04-21T10:42:30.414Z,18.60
2023-04-21T10:44:59.471Z,18.75
2023-04-21T10:47:35.908Z,25.30
2023-04-21T10:50:28.689Z,23.05
2023-04-21T10:53:10.263Z,20.42
2023-04-21T10:55:43.028Z,21.30
2023-04-21T10:58:12.678Z,23.30
2023-04-21T11:00:41.820Z,17.88
2023-04-21T11:03:11.518Z,14.25
2023-04-21T11:05:42.685Z,24.02
2023-04-21T11:08:16.485Z,23.52
2023-04-21T11:11:05.742Z,17.52
2023-04-21T11:13:35.993Z,22.08
2023-04-21T11:16:09.189Z,27.90
2023-04-21T11:18:44.365Z,22.05
2023-04-21T11:21:19.331Z,16.00
2023-04-21T11:23:56.652Z,16.70
2023-04-21T11:26:37.867Z,16.45
2023-04-21T11:29:08.442Z,24.80
2023-04-21T11:31:40.318Z,21.88
2023-04-21T11:34:11.505Z,18.35
2023-04-21T11:36:42.845Z,25.13
2023-04-21T11:39:14.311Z,20.60
2023-04-21T11:41:50.517Z,21.48
2023-04-21T11:44:42.762Z,22.95
2023-04-21T11:47:25.548Z,15.65
2023-04-21T11:50:02.307Z,22.92
2023-04-21T11:52:40.518Z,29.92
2023-04-21T11:55:19.565Z,16.90
2023-04-21T11:57:52.118Z,20.60
2023-04-21T12:00:23.614Z,21.25
2023-04-21T12:02:57.438Z,17.17
2023-04-21T12:05:27.225Z,19.85
2023-04-21T12:07:57.568Z,22.02
2023-04-21T12:10:26.992Z,23.40
2023-04-21T12:12:58.003Z,22.63
2023-04-21T12:15:27.604Z,26.13
2023-04-21T12:17:56.738Z,19.90
2023-04-21T12:20:29.822Z,28.45
2023-04-21T12:22:58.980Z,20.52
2023-04-21T12:25:28.012Z,24.23
2023-04-21T12:28:00.497Z,25.30
2023-04-21T12:30:29.736Z,29.27
2023-04-21T12:32:59.290Z,22.77
2023-04-21T12:35:28.480Z,22.67
2023-04-21T12:37:57.699Z,20.63
2023-04-21T12:40:28.214Z,20.55
2023-04-21T12:42:57.450Z,18.65
2023-04-21T12:45:26.380Z,18.83
2023-04-21T12:47:58.657Z,13.70
2023-04-21T12:50:27.946Z,20.27
2023-04-21T12:52:57.111Z,23.33
2023-04-21T12:55:26.658Z,24.42
2023-04-21T12:57:56.372Z,17.65
2023-04-21T13:00:25.572Z,16.67
2023-04-21T13:02:54.726Z,16.95
2023-04-21T13:05:23.899Z,18.30
2023-04-21T13:07:56.021Z,20.38
2023-04-21T13:10:26.139Z,22.77
2023-04-21T13:12:55.288Z,20.55
2023-04-21T13:15:25.808Z,22.50
2023-04-21T13:17:55.416Z,16.08
2023-04-21T13:20:24.635Z,18.70
2023-04-21T13:22:53.611Z,25.77
2023-04-21T13:25:22.739Z,19.27
2023-04-21T13:27:53.353Z,22.35
2023-04-21T13:30:25.119Z,15.55
2023-04-21T13:32:57.526Z,23.33
2023-04-21T13:35:28.615Z,14.52
2023-04-21T13:37:59.484Z,20.33
2023-04-21T13:40:32.122Z,22.90
2023-04-21T13:43:01.562Z,20.90
2023-04-21T13:45:30.602Z,23.42
2023-04-21T13:47:59.673Z,21.73
2023-04-21T13:50:31.963Z,22.33
2023-04-21T13:53:03.968Z,19.77
2023-04-21T13:55:33.067Z,24.70
2023-04-21T13:58:02.657Z,25.90
2023-04-21T14:00:31.756Z,16.23
2023-04-21T14:03:01.212Z,22.35
2023-04-21T14:05:31.268Z,24.42
2023-04-21T14:08:02.635Z,15.57
2023-04-21T14:10:32.093Z,23.20
2023-04-21T14:13:01.150Z,14.15
2023-04-21T14:15:30.118Z,18.50
2023-04-21T14:17:59.359Z,22.85
2023-04-21T14:20:28.435Z,19.40
2023-04-21T14:22:57.741Z,23.02
2023-04-21T14:25:26.845Z,21.05
2023-04-21T14:27:56.028Z,15.95
2023-04-21T14:30:24.940Z,15.77
2023-04-21T14:32:54.101Z,12.70
2023-04-21T14:35:23.299Z,17.35
2023-04-21T14:37:54.771Z,9.73
2023-04-21T14:40:25.143Z,15.20
2023-04-21T14:42:54.088Z,14.05
2023-04-21T14:45:23.587Z,14.07
2023-04-21T14:47:52.832Z,15.20
2023-04-21T14:50:22.642Z,17.10
2023-04-21T14:52:55.285Z,23.50
2023-04-21T14:55:24.746Z,19.52
2023-04-21T14:57:54.037Z,23.58
2023-04-21T15:00:24.367Z,27.50
2023-04-21T15:02:53.808Z,17.30
2023-04-21T15:05:23.185Z,13.13
2023-04-21T15:07:52.704Z,22.08
2023-04-21T15:10:21.989Z,23.02
2023-04-21T15:12:51.156Z,23.35
2023-04-21T15:15:20.473Z,23.23
2023-04-21T15:17:49.650Z,16.15
2023-04-21T15:21:04.095Z,13.15
2023-04-21T15:23:59.312Z,13.95
2023-04-21T15:26:31.086Z,17.77
2023-04-21T15:29:00.022Z,23.17
2023-04-21T15:31:32.453Z,18.85
2023-04-21T15:34:01.613Z,20.60
2023-04-21T15:36:32.107Z,12.52
2023-04-21T15:39:04.811Z,15.18
2023-04-21T15:41:39.140Z,20.67
2023-04-21T15:44:11.566Z,20.75
2023-04-21T15:46:48.613Z,14.88
2023-04-21T15:49:17.865Z,20.08
2023-04-21T15:51:47.272Z,17.42
2023-04-21T15:54:17.179Z,29.02
2023-04-21T15:56:46.248Z,17.38
2023-04-21T15:59:23.675Z,20.83
2023-04-21T16:01:54.119Z,18.98
2023-04-21T16:04:33.191Z,18.92
2023-04-21T16:07:02.785Z,21.73
2023-04-21T16:09:31.972Z,22.77
2023-04-21T16:12:10.577Z,14.52
2023-04-21T16:14:54.386Z,19.95
2023-04-21T16:17:28.762Z,20.02
2023-04-21T16:19:58.056Z,17.80
2023-04-21T16:22:27.348Z,17.40
2023-04-21T16:24:56.807Z,24.00
2023-04-21T16:27:26.454Z,14.25
2023-04-21T16:29:55.620Z,18.55
2023-04-21T16:32:24.885Z,17.33
2023-04-21T16:34:54.227Z,14.55
2023-04-21T16:37:24.490Z,16.55
2023-04-21T16:39:53.561Z,24.35
2023-04-21T16:42:22.712Z,17.67
2023-04-21T16:44:51.917Z,23.20
2023-04-21T16:47:21.004Z,20.45
2023-04-21T16:49:49.999Z,14.98
2023-04-21T16:52:19.311Z,17.30
2023-04-21T16:54:48.322Z,18.13
2023-04-21T16:57:17.363Z,18.48
2023-04-21T16:59:47.353Z,25.98
2023-04-21T17:02:16.776Z,15.40
2023-04-21T17:04:48.364Z,17.58
2023-04-21T17:07:17.909Z,19.13
2023-04-21T17:09:46.898Z,22.38
2023-04-21T17:12:18.351Z,19.85
2023-04-21T17:14:47.777Z,12.60
2023-04-21T17:17:17.021Z,22.90
2023-04-21T17:19:46.376Z,15.88
2023-04-21T17:22:15.312Z,19.05
2023-04-21T17:24:53.215Z,19.85
2023-04-21T17:27:23.290Z,19.05
2023-04-21T17:29:52.442Z,23.00
2023-04-21T17:32:22.377Z,13.43
2023-04-21T17:34:51.417Z,20.85
2023-04-21T17:37:22.344Z,17.50
2023-04-21T17:39:54.394Z,18.90
2023-04-21T17:42:23.609Z,22.17
2023-04-21T17:44:52.648Z,19.65
2023-04-21T17:47:21.697Z,22.80
2023-04-21T17:49:50.923Z,12.43
2023-04-21T17:52:22.940Z,11.90
2023-04-21T17:54:52.150Z,19.27
2023-04-21T17:57:21.651Z,19.65
2023-04-21T17:59:50.865Z,29.23
2023-04-21T18:02:20.273Z,18.38
2023-04-21T18:04:49.488Z,18.33
2023-04-21T18:07:18.666Z,12.82
2023-04-21T18:09:49.654Z,21.23
2023-04-21T18:12:18.735Z,18.63
2023-04-21T18:14:47.702Z,13.63
2023-04-21T18:17:17.551Z,18.77
2023-04-21T18:19:49.930Z,11.93
2023-04-21T18:22:19.137Z,18.23
2023-04-21T18:24:48.133Z,14.80
2023-04-21T18:27:17.211Z,12.82
2023-04-21T18:29:46.256Z,13.50
2023-04-21T18:32:15.370Z,11.35
2023-04-21T18:34:47.422Z,18.08
2023-04-21T18:37:16.882Z,22.48
2023-04-21T18:39:45.801Z,13.80
2023-04-21T18:42:14.969Z,14.57
2023-04-21T18:44:47.445Z,19.02
2023-04-21T18:47:17.054Z,12.40
2023-04-21T18:49:46.238Z,17.73
2023-04-21T18:52:15.290Z,8.60
2023-04-21T18:54:44.434Z,9.45
2023-04-21T18:57:13.669Z,14.85
2023-04-21T18:59:42.971Z,14.88
2023-04-21T19:02:14.702Z,16.65
2023-04-21T19:04:47.314Z,17.35
2023-04-21T19:07:17.649Z,15.73
2023-04-21T19:09:46.715Z,19.55
2023-04-21T19:12:15.800Z,12.05
2023-04-21T19:14:47.553Z,7.97
2023-04-21T19:17:17.160Z,11.10
2023-04-21T19:19:49.027Z,12.32
2023-04-21T19:22:18.303Z,20.95
2023-04-21T19:24:48.222Z,17.75
2023-04-21T19:27:18.040Z,20.38
2023-04-21T19:29:47.311Z,11.38
2023-04-21T19:32:16.400Z,21.02
2023-04-21T19:34:45.542Z,13.20
2023-04-21T19:37:15.500Z,13.80
2023-04-21T19:39:45.094Z,8.10
2023-04-21T19:42:14.272Z,13.73
2023-04-21T19:44:43.992Z,9.75
2023-04-21T19:47:14.081Z,5.90
2023-04-21T19:49:43.315Z,8.32
2023-04-21T19:52:12.233Z,10.77
2023-04-21T19:54:41.556Z,8.27
2023-04-21T19:57:10.844Z,12.68
2023-04-21T19:59:40.158Z,8.40
2023-04-21T20:02:09.656Z,13.18
2023-04-21T20:04:43.202Z,10.43
2023-04-21T20:07:13.311Z,17.55
2023-04-21T20:09:45.672Z,12.25
2023-04-21T20:12:14.724Z,13.40
2023-04-21T20:14:43.783Z,9.20
2023-04-21T20:17:15.723Z,9.25
2023-04-21T20:19:47.573Z,9.20
2023-04-21T20:22:17.057Z,9.45
2023-04-21T20:24:49.785Z,8.27
2023-04-21T20:27:19.904Z,6.97
2023-04-21T20:29:49.070Z,11.93
2023-04-21T20:32:18.320Z,11.35
2023-04-21T20:34:49.342Z,7.78
2023-04-21T20:37:18.713Z,11.38
2023-04-21T20:39:48.263Z,8.82
2023-04-21T20:42:19.219Z,9.73
2023-04-21T20:44:49.055Z,14.10
2023-04-21T20:47:20.034Z,8.25
2023-04-21T20:49:49.165Z,9.57
2023-04-21T20:52:18.203Z,10.38
2023-04-21T20:54:47.264Z,9.07
2023-04-21T20:57:16.855Z,13.02
2023-04-21T20:59:46.201Z,9.40
2023-04-21T21:02:15.250Z,9.85
2023-04-21T21:04:44.516Z,8.77
2023-04-21T21:07:13.882Z,7.82
2023-04-21T21:09:45.783Z,8.50
2023-04-21T21:12:15.152Z,10.68
2023-04-21T21:14:47.349Z,15.40
2023-04-21T21:17:17.729Z,13.40
2023-04-21T21:19:47.022Z,9.43
2023-04-21T21:22:19.174Z,13.15
2023-04-21T21:24:48.372Z,13.93
2023-04-21T21:27:17.713Z,13.90
2023-04-21T21:29:50.301Z,12.73
2023-04-21T21:32:19.366Z,12.60
2023-04-21T21:34:48.969Z,12.70
2023-04-21T21:37:18.227Z,13.00
2023-04-21T21:39:47.461Z,13.88
2023-04-21T21:42:20.882Z,14.82
2023-04-21T21:44:49.933Z,10.68
2023-04-21T21:47:20.669Z,14.82
2023-04-21T21:49:55.435Z,9.82
2023-04-21T21:52:25.387Z,6.13
2023-04-21T21:54:54.819Z,11.77
2023-04-21T21:57:23.879Z,7.38
2023-04-21T21:59:53.655Z,10.23
2023-04-21T22:02:22.815Z,9.65
2023-04-21T22:04:54.865Z,9.27
2023-04-21T22:07:26.193Z,9.30
2023-04-21T22:09:55.884Z,12.30
2023-04-21T22:12:24.876Z,8.05
2023-04-21T22:14:54.549Z,10.45
2023-04-21T22:17:23.516Z,8.50
2023-04-21T22:19:52.640Z,8.43
2023-04-21T22:22:24.612Z,11.07
2023-04-21T22:24:57.051Z,13.98
2023-04-21T22:27:26.252Z,13.35
2023-04-21T22:29:57.120Z,7.93
2023-04-21T22:32:29.822Z,9.82
2023-04-21T22:35:02.286Z,8.68
2023-04-21T22:37:31.554Z,12.18
2023-04-21T22:40:01.563Z,12.98
2023-04-21T22:42:30.651Z,6.05
2023-04-21T22:45:02.773Z,12.85
2023-04-21T22:47:34.229Z,9.35
2023-04-21T22:50:03.417Z,10.43
2023-04-21T22:52:32.540Z,10.70
2023-04-21T22:55:01.559Z,16.45
2023-04-21T22:57:30.607Z,7.28
2023-04-21T22:59:59.921Z,9.13
2023-04-21T23:02:29.494Z,10.95
2023-04-21T23:04:58.610Z,12.98
2023-04-21T23:07:27.965Z,11.02
2023-04-21T23:09:56.895Z,8.50
2023-04-21T23:12:29.358Z,11.35
2023-04-21T23:14:58.355Z,11.27
2023-04-21T23:17:27.398Z,11.25
2023-04-21T23:19:56.518Z,13.93
2023-04-21T23:22:26.290Z,6.30
2023-04-21T23:24:55.419Z,10.02
2023-04-21T23:27:24.289Z,11.02
2023-04-21T23:29:53.328Z,13.30
2023-04-21T23:32:22.667Z,8.85
2023-04-21T23:34:51.962Z,10.02
2023-04-21T23:37:21.175Z,11.93
2023-04-21T23:39:52.831Z,14.35
2023-04-21T23:42:22.261Z,10.20
2023-04-21T23:44:51.507Z,7.68
2023-04-21T23:47:20.708Z,10.27
2023-04-21T23:49:49.721Z,5.95
2023-04-21T23:52:19.081Z,10.65
2023-04-21T23:54:49.242Z,11.57
2023-04-21T23:57:18.514Z,9.25
2023-04-21T23:59:47.606Z,4.30
